Data for 12/17/2005

Time Sea-Level Adjusted Pressure Absolute Pressure Temperature Relative Humidity Dew Point   
(mb) (inHg) (mb) (inHg) (C) (F) (%) (C) (F)
00:05 1017 30.03 846 24.98 -13.3 8 76 -16.7 1.9
00:10 1017 30.03 846 24.98 -13.4 7.8 76 -16.8 1.7
00:15 1017 30.03 846 24.98 -13.5 7.8 76 -16.8 1.8
00:20 1017 30.03 846 24.98 -13.6 7.6 77 -16.9 1.7
00:25 1017 30.03 846 24.98 -13.6 7.6 77 -16.8 1.7
00:30 1017 30.03 847 25.01 -13.7 7.4 77 -16.9 1.5
00:35 1017 30.03 847 25.01 -13.7 7.3 77 -17 1.4
00:40 1017 30.03 847 25.01 -13.8 7.3 76 -17.1 1.3
00:45 1017 30.03 847 25.01 -13.8 7.2 77 -17 1.4
00:50 1017 30.03 847 25.01 -13.9 7 77 -17.1 1.3
00:55 1017 30.03 847 25.01 -13.9 7 77 -17 1.3
01:00 1017 30.03 847 25.01 -13.9 6.9 77 -17.1 1.2
01:05 1017 30.03 847 25.01 -13.9 6.9 77 -17.1 1.2
01:10 1017 30.03 847 25.01 -14 6.9 77 -17.1 1.2
01:15 1018 30.06 847 25.01 -14 6.8 77 -17.2 1.1
01:20 1018 30.06 847 25.01 -14.1 6.7 77 -17.3 0.8
01:25 1018 30.06 847 25.01 -14.2 6.4 78 -17.3 0.8
01:30 1018 30.06 847 25.01 -14.2 6.5 78 -17.2 1.1
01:35 1018 30.06 847 25.01 -14.2 6.4 78 -17.2 1
01:40 1018 30.06 847 25.01 -14.2 6.4 79 -17.2 1
01:45 1018 30.06 847 25.01 -14.2 6.4 78 -17.3 0.9
01:50 1018 30.06 847 25.01 -14.2 6.5 78 -17.2 1
01:55 1018 30.06 847 25.01 -14.2 6.4 78 -17.3 0.9
02:00 1018 30.06 847 25.01 -14.2 6.5 77 -17.3 0.8
02:05 1018 30.06 848 25.04 -14.2 6.4 77 -17.5 0.6
02:10 1018 30.06 848 25.04 -14.2 6.5 77 -17.4 0.7
02:15 1018 30.06 848 25.04 -14.2 6.4 76 -17.6 0.3
02:20 1019 30.09 848 25.04 -14.3 6.3 75 -17.8 0
02:25 1019 30.09 848 25.04 -14.3 6.3 75 -17.8 -0.1
02:30 1019 30.09 848 25.04 -14.3 6.3 75 -17.8 -0.1
02:35 1019 30.09 848 25.04 -14.3 6.3 74 -18 -0.3
02:40 1019 30.09 848 25.04 -14.4 6 75 -18 -0.4
02:45 1019 30.09 848 25.04 -14.6 5.8 75 -18 -0.5
02:50 1019 30.09 848 25.04 -14.6 5.7 75 -18.1 -0.6
02:55 1019 30.09 848 25.04 -14.6 5.7 75 -18.1 -0.6
03:00 1019 30.09 848 25.04 -14.5 5.8 74 -18.2 -0.7
03:05 1019 30.09 848 25.04 -14.6 5.8 74 -18.3 -0.9
03:10 1019 30.09 848 25.04 -14.6 5.7 74 -18.3 -0.9
03:15 1019 30.09 848 25.04 -14.6 5.8 73 -18.3 -1
03:20 1019 30.09 848 25.04 -14.5 5.9 74 -18.3 -0.9
03:25 1019 30.09 848 25.04 -14.5 5.9 73 -18.3 -1
03:30 1019 30.09 848 25.04 -14.5 5.8 73 -18.3 -1
03:35 1019 30.09 848 25.04 -14.5 5.9 73 -18.3 -1
03:40 1019 30.09 848 25.04 -14.6 5.8 73 -18.3 -1
03:45 1019 30.09 848 25.04 -14.6 5.6 74 -18.3 -1
03:50 1019 30.09 848 25.04 -14.7 5.5 74 -18.4 -1.1
03:55 1019 30.09 848 25.04 -14.6 5.8 73 -18.4 -1.2
04:00 1019 30.09 848 25.04 -14.4 6 73 -18.3 -1
04:05 1019 30.09 848 25.04 -14.4 6.2 73 -18.3 -0.9
04:10 1019 30.09 848 25.04 -14.4 6.1 73 -18.3 -0.9
04:15 1019 30.09 848 25.04 -14.4 6.1 73 -18.2 -0.8
04:20 1019 30.09 848 25.04 -14.5 5.9 73 -18.2 -0.8
04:25 1019 30.09 848 25.04 -14.6 5.7 73 -18.4 -1.1
04:30 1019 30.09 848 25.04 -14.6 5.6 73 -18.4 -1.2
04:35 1019 30.09 848 25.04 -14.6 5.7 73 -18.5 -1.2
04:40 1019 30.09 848 25.04 -14.7 5.6 73 -18.4 -1.2
04:45 1019 30.09 848 25.04 -14.8 5.4 74 -18.5 -1.3
04:50 1019 30.09 848 25.04 -14.8 5.3 74 -18.5 -1.2
04:55 1019 30.09 848 25.04 -14.8 5.4 74 -18.4 -1.2
05:00 1019 30.09 848 25.04 -14.8 5.4 74 -18.4 -1.2
05:05 1019 30.09 848 25.04 -14.8 5.3 74 -18.4 -1.2
05:10 1019 30.09 848 25.04 -14.8 5.4 74 -18.5 -1.3
05:15 1019 30.09 848 25.04 -14.9 5.2 74 -18.5 -1.2
05:20 1019 30.09 848 25.04 -15.1 4.9 74 -18.7 -1.6
05:25 1019 30.09 848 25.04 -15.1 4.9 75 -18.6 -1.5
05:30 1019 30.09 848 25.04 -15.1 4.7 75 -18.7 -1.6
05:35 1019 30.09 848 25.04 -15.3 4.5 75 -18.8 -1.8
05:40 1019 30.09 849 25.07 -15.4 4.3 75 -18.9 -2
05:45 1019 30.09 849 25.07 -15.3 4.5 76 -18.7 -1.7
05:50 1019 30.09 849 25.07 -15.3 4.4 76 -18.7 -1.6
05:55 1020 30.12 849 25.07 -15.3 4.4 76 -18.7 -1.7
06:00 1020 30.12 849 25.07 -15.4 4.3 76 -18.8 -1.8
06:05 1020 30.12 849 25.07 -15.4 4.3 75 -18.9 -2
06:10 1020 30.12 849 25.07 -15.4 4.3 74 -19 -2.2
06:15 1020 30.12 849 25.07 -15.4 4.3 75 -19 -2.1
06:20 1020 30.12 849 25.07 -15.3 4.6 75 -18.8 -1.9
06:25 1020 30.12 849 25.07 -15.2 4.6 75 -18.8 -1.8
06:30 1020 30.12 849 25.07 -15.3 4.5 75 -18.7 -1.7
06:35 1020 30.12 849 25.07 -15.2 4.7 75 -18.7 -1.6
06:40 1020 30.12 849 25.07 -15.2 4.7 75 -18.7 -1.6
06:45 1020 30.12 849 25.07 -15.1 4.8 75 -18.6 -1.5
06:50 1020 30.12 849 25.07 -15.2 4.7 75 -18.7 -1.6
06:55 1020 30.12 849 25.07 -15.2 4.7 75 -18.8 -1.8
07:00 1020 30.12 849 25.07 -15.2 4.6 75 -18.7 -1.7
07:05 1020 30.12 849 25.07 -15.3 4.4 75 -18.8 -1.9
07:10 1020 30.12 849 25.07 -15.2 4.7 75 -18.7 -1.7
07:15 1020 30.12 849 25.07 -15.1 4.8 75 -18.7 -1.6
07:20 1020 30.12 849 25.07 -15 5 75 -18.6 -1.4
07:25 1020 30.12 849 25.07 -15 4.9 75 -18.5 -1.3
07:30 1020 30.12 849 25.07 -15.1 4.9 75 -18.5 -1.3
07:35 1020 30.12 849 25.07 -15.1 4.9 75 -18.6 -1.5
07:40 1020 30.12 849 25.07 -15.2 4.7 75 -18.6 -1.5
07:45 1020 30.12 850 25.1 -15.3 4.4 76 -18.7 -1.7
07:50 1020 30.12 850 25.1 -15.6 3.8 76 -18.9 -2.1
07:55 1020 30.12 850 25.1 -15.9 3.3 77 -19 -2.3
08:00 1020 30.12 850 25.1 -16 3.2 78 -19 -2.2
08:05 1021 30.15 850 25.1 -16.1 3 78 -19.1 -2.4
08:10 1021 30.15 850 25.1 -16.1 3 78 -19 -2.3
08:15 1021 30.15 850 25.1 -16 3.1 78 -19 -2.2
08:20 1021 30.15 850 25.1 -16 3.3 78 -19 -2.2
08:25 1021 30.15 850 25.1 -16 3.3 78 -18.9 -2.1
08:30 1021 30.15 850 25.1 -16 3.3 78 -19 -2.2
08:35 1021 30.15 850 25.1 -16 3.3 78 -19 -2.3
08:40 1021 30.15 850 25.1 -16 3.3 78 -19 -2.3
08:45 1021 30.15 850 25.1 -15.7 3.7 77 -18.9 -2
08:50 1021 30.15 850 25.1 -15.4 4.2 76 -18.8 -1.8
08:55 1021 30.15 850 25.1 -15.2 4.7 75 -18.7 -1.7
09:00 1021 30.15 850 25.1 -15 5 73 -18.8 -1.8
09:05 1021 30.15 850 25.1 -14.8 5.3 72 -18.8 -1.9
09:10 1021 30.15 850 25.1 -14.6 5.7 71 -18.8 -1.9
09:15 1021 30.15 850 25.1 -14.5 5.9 70 -18.8 -1.9
09:20 1021 30.15 851 25.13 -14.4 6.1 69 -18.8 -1.9
09:25 1021 30.15 851 25.13 -14.3 6.4 69 -18.8 -1.8
09:30 1021 30.15 851 25.13 -14.3 6.3 69 -18.8 -1.9
09:35 1021 30.15 851 25.13 -14.3 6.3 68 -19 -2.2
09:40 1022 30.18 851 25.13 -14.2 6.4 69 -18.7 -1.7
09:45 1022 30.18 851 25.13 -14.2 6.4 68 -18.9 -2
09:50 1022 30.18 851 25.13 -14.2 6.5 68 -18.9 -1.9
09:55 1022 30.18 851 25.13 -14.1 6.6 68 -18.9 -1.9
10:00 1022 30.18 851 25.13 -14 6.8 67 -18.9 -1.9
10:05 1022 30.18 851 25.13 -14 6.9 67 -18.8 -1.9
10:10 1022 30.18 851 25.13 -14 6.9 67 -18.9 -2
10:15 1022 30.18 851 25.13 -13.9 6.9 66 -18.9 -2.1
10:20 1022 30.18 851 25.13 -13.8 7.1 65 -19 -2.2
10:25 1022 30.18 851 25.13 -13.8 7.1 66 -18.9 -2.1
10:30 1022 30.18 851 25.13 -13.7 7.3 66 -18.7 -1.7
10:35 1022 30.18 851 25.13 -13.4 7.8 63 -19 -2.2
10:40 1022 30.18 851 25.13 -13.5 7.7 62 -19.2 -2.6
10:45 1022 30.18 851 25.13 -13.5 7.6 62 -19.3 -2.7
10:50 1022 30.18 851 25.13 -13.4 7.8 62 -19.3 -2.7
10:55 1022 30.18 851 25.13 -13.6 7.6 62 -19.5 -3.1
11:00 1022 30.18 851 25.13 -13.7 7.3 62 -19.5 -3
11:05 1022 30.18 851 25.13 -13.8 7.2 63 -19.4 -2.9
11:10 1022 30.18 851 25.13 -13.7 7.4 62 -19.5 -3.1
11:15 1022 30.18 851 25.13 -13.7 7.4 62 -19.5 -3.2
11:20 1022 30.18 851 25.13 -13.4 7.8 63 -19.2 -2.5
11:25 1022 30.18 851 25.13 -13.4 7.8 61 -19.4 -3
11:30 1022 30.18 851 25.13 -13.5 7.7 63 -19.2 -2.6
11:35 1022 30.18 851 25.13 -13.3 8 62 -19.2 -2.5
11:40 1022 30.18 851 25.13 -13.2 8.3 62 -19 -2.3
11:45 1022 30.18 851 25.13 -13.1 8.5 62 -18.9 -2.1
11:50 1022 30.18 851 25.13 -13.2 8.2 61 -19.2 -2.5
11:55 1022 30.18 851 25.13 -13 8.6 61 -19 -2.1
12:00 1022 30.18 851 25.13 -13.1 8.5 60 -19.3 -2.7
12:05 1022 30.18 851 25.13 -13.1 8.4 60 -19.4 -2.8
12:10 1022 30.18 851 25.13 -12.8 8.9 60 -19.1 -2.5
12:15 1022 30.18 851 25.13 -12.8 9 59 -19.2 -2.5
12:20 1022 30.18 851 25.13 -12.8 9 61 -18.9 -2
12:25 1022 30.18 851 25.13 -12.7 9.2 61 -18.8 -1.8
12:30 1022 30.18 851 25.13 -12.4 9.8 59 -18.8 -1.8
12:35 1022 30.18 851 25.13 -12.3 9.9 60 -18.5 -1.3
12:40 1022 30.18 851 25.13 -12.5 9.6 65 -17.8 0
12:45 1022 30.18 851 25.13 -12.1 10.2 59 -18.6 -1.4
12:50 1022 30.18 851 25.13 -12.5 9.5 60 -18.8 -1.9
12:55 1022 30.18 851 25.13 -12.3 9.8 59 -18.8 -1.8
13:00 1022 30.18 851 25.13 -12.6 9.3 59 -19 -2.2
13:05 1022 30.18 851 25.13 -12.3 10 57 -19.1 -2.3
13:10 1022 30.18 851 25.13 -12.4 9.7 58 -19 -2.3
13:15 1022 30.18 851 25.13 -12.3 9.8 58 -19 -2.2
13:20 1021 30.15 851 25.13 -12 10.4 57 -18.9 -2
13:25 1022 30.18 851 25.13 -12.4 9.7 61 -18.5 -1.2
13:30 1021 30.15 851 25.13 -12.5 9.5 62 -18.4 -1
13:35 1022 30.18 851 25.13 -12.3 9.9 59 -18.8 -1.9
13:40 1021 30.15 851 25.13 -12.2 10.1 58 -18.8 -1.8
13:45 1021 30.15 851 25.13 -12.1 10.3 58 -18.7 -1.6
13:50 1021 30.15 851 25.13 -12.2 10.1 59 -18.6 -1.5
13:55 1021 30.15 851 25.13 -12 10.4 59 -18.5 -1.3
14:00 1021 30.15 851 25.13 -12.5 9.5 60 -18.8 -1.9
14:05 1021 30.15 851 25.13 -12.5 9.6 60 -18.7 -1.6
14:10 1021 30.15 851 25.13 -12.6 9.3 62 -18.5 -1.3
14:15 1021 30.15 851 25.13 -12.6 9.3 60 -19 -2.1
14:20 1021 30.15 851 25.13 -12.9 8.9 61 -19 -2.2
14:25 1021 30.15 851 25.13 -12.9 8.7 61 -18.9 -2.1
14:30 1021 30.15 851 25.13 -12.9 8.8 61 -18.9 -2.1
14:35 1021 30.15 851 25.13 -12.9 8.7 61 -18.9 -2.1
14:40 1022 30.18 851 25.13 -13.3 8.1 63 -18.9 -2
14:45 1022 30.18 851 25.13 -13.1 8.4 64 -18.6 -1.5
14:50 1022 30.18 851 25.13 -13.2 8.2 62 -19.1 -2.4
14:55 1022 30.18 851 25.13 -13.2 8.3 61 -19.2 -2.6
15:00 1022 30.18 851 25.13 -13.2 8.3 61 -19.1 -2.4
15:05 1022 30.18 851 25.13 -13.4 7.9 62 -19.2 -2.5
15:10 1022 30.18 851 25.13 -13.2 8.2 62 -19.1 -2.3
15:15 1022 30.18 851 25.13 -13.3 8.1 62 -19.2 -2.5
15:20 1022 30.18 851 25.13 -13.3 8.1 61 -19.2 -2.6
15:25 1022 30.18 851 25.13 -13.2 8.3 62 -19.1 -2.4
15:30 1022 30.18 851 25.13 -13.1 8.4 62 -19 -2.2
15:35 1022 30.18 851 25.13 -13.3 8.1 62 -19.1 -2.5
15:40 1022 30.18 851 25.13 -13.5 7.8 62 -19.3 -2.8
15:45 1022 30.18 851 25.13 -13.5 7.8 61 -19.4 -2.9
15:50 1022 30.18 851 25.13 -13.5 7.6 62 -19.3 -2.7
15:55 1022 30.18 851 25.13 -13.8 7.2 63 -19.4 -2.9
16:00 1022 30.18 852 25.16 -13.9 7 64 -19.4 -2.9
16:05 1022 30.18 851 25.13 -13.9 7 63 -19.4 -3
16:10 1022 30.18 852 25.16 -13.8 7.1 64 -19.3 -2.8
16:15 1022 30.18 852 25.16 -13.8 7.1 64 -19.2 -2.5
16:20 1022 30.18 852 25.16 -14 6.8 65 -19.3 -2.7
16:25 1022 30.18 852 25.16 -14 6.8 66 -19 -2.2
16:30 1022 30.18 852 25.16 -14.1 6.6 67 -18.9 -2
16:35 1022 30.18 852 25.16 -14.3 6.3 69 -18.8 -1.9
16:40 1022 30.18 852 25.16 -14.4 6.1 69 -19 -2.1
16:45 1022 30.18 852 25.16 -14.4 6.1 69 -18.9 -2.1
16:50 1022 30.18 851 25.13 -14.5 5.9 69 -18.9 -2.1
16:55 1022 30.18 852 25.16 -14.5 5.9 70 -18.8 -1.8
17:00 1022 30.18 852 25.16 -14.6 5.8 72 -18.6 -1.4
17:05 1022 30.18 852 25.16 -14.8 5.5 73 -18.5 -1.3
17:10 1023 30.21 852 25.16 -14.9 5.1 74 -18.6 -1.5
17:15 1023 30.21 852 25.16 -15 5.1 74 -18.6 -1.4
17:20 1023 30.21 852 25.16 -15.1 4.8 75 -18.7 -1.6
17:25 1023 30.21 852 25.16 -15.1 4.8 75 -18.7 -1.6
17:30 1023 30.21 852 25.16 -15.2 4.7 75 -18.7 -1.7
17:35 1023 30.21 852 25.16 -15.1 4.7 74 -18.7 -1.7
17:40 1023 30.21 852 25.16 -15.3 4.5 75 -18.8 -1.8
17:45 1023 30.21 852 25.16 -15.3 4.4 75 -18.8 -1.9
17:50 1023 30.21 852 25.16 -15.4 4.2 75 -18.9 -2
17:55 1023 30.21 852 25.16 -15.4 4.2 75 -18.9 -2.1
18:00 1023 30.21 852 25.16 -15.5 4.2 75 -18.9 -2
18:05 1023 30.21 852 25.16 -15.5 4.2 76 -18.8 -1.8
18:10 1023 30.21 852 25.16 -15.5 4.1 76 -18.8 -1.9
18:15 1023 30.21 852 25.16 -15.5 4.1 76 -18.8 -1.8
18:20 1023 30.21 852 25.16 -15.5 4.2 76 -18.8 -1.9
18:25 1023 30.21 852 25.16 -15.5 4 76 -18.9 -2
18:30 1023 30.21 852 25.16 -15.6 3.9 76 -18.9 -2
18:35 1023 30.21 852 25.16 -15.8 3.6 76 -19 -2.2
18:40 1023 30.21 852 25.16 -15.8 3.6 76 -19.1 -2.3
18:45 1023 30.21 852 25.16 -15.9 3.4 76 -19.2 -2.6
18:50 1023 30.21 852 25.16 -16.1 3 76 -19.3 -2.8
18:55 1023 30.21 852 25.16 -16 3.2 78 -19.1 -2.3
19:00 1023 30.21 852 25.16 -16 3.1 77 -19.2 -2.5
19:05 1023 30.21 852 25.16 -16.2 2.8 78 -19.3 -2.7
19:10 1023 30.21 852 25.16 -16.1 3 78 -19.1 -2.3
19:15 1023 30.21 852 25.16 -16.1 3 78 -19.1 -2.3
19:20 1023 30.21 852 25.16 -16.2 2.8 78 -19.2 -2.6
19:25 1023 30.21 852 25.16 -16.2 2.8 78 -19.2 -2.5
19:30 1023 30.21 852 25.16 -16.3 2.7 77 -19.4 -2.8
19:35 1023 30.21 852 25.16 -16.3 2.6 77 -19.5 -3.1
19:40 1023 30.21 852 25.16 -16.3 2.7 78 -19.3 -2.8
19:45 1023 30.21 852 25.16 -16.3 2.7 79 -19.2 -2.5
19:50 1023 30.21 852 25.16 -16.2 2.8 78 -19.1 -2.5
19:55 1023 30.21 853 25.19 -16.2 2.9 78 -19.2 -2.6
20:00 1023 30.21 853 25.19 -16.2 2.8 76 -19.5 -3.1
20:05 1023 30.21 853 25.19 -16.3 2.6 76 -19.6 -3.3
20:10 1024 30.24 853 25.19 -16.4 2.5 75 -19.8 -3.7
20:15 1024 30.24 853 25.19 -16.5 2.3 75 -19.9 -3.8
20:20 1024 30.24 853 25.19 -16.4 2.6 74 -19.9 -3.8
20:25 1024 30.24 853 25.19 -16.4 2.6 74 -20 -4
20:30 1024 30.24 853 25.19 -16.4 2.4 74 -20 -4
20:35 1024 30.24 853 25.19 -16.5 2.3 75 -19.9 -3.8
20:40 1024 30.24 853 25.19 -16.5 2.3 76 -19.8 -3.6
20:45 1024 30.24 853 25.19 -16.5 2.4 75 -19.9 -3.8
20:50 1024 30.24 853 25.19 -16.7 2 75 -20 -4.1
20:55 1024 30.24 853 25.19 -16.7 1.9 76 -20.1 -4.2
21:00 1024 30.24 853 25.19 -16.6 2.1 76 -20 -3.9
21:05 1024 30.24 853 25.19 -16.5 2.2 76 -19.9 -3.7
21:10 1024 30.24 853 25.19 -16.5 2.4 75 -19.9 -3.8
21:15 1024 30.24 853 25.19 -16.3 2.6 75 -19.8 -3.7
21:20 1024 30.24 853 25.19 -16.5 2.3 75 -20 -4
21:25 1024 30.24 853 25.19 -16.6 2.1 75 -20.1 -4.1
21:30 1024 30.24 853 25.19 -16.7 1.9 77 -19.9 -3.8
21:35 1024 30.24 853 25.19 -16.5 2.3 77 -19.7 -3.4
21:40 1024 30.24 853 25.19 -16.5 2.3 74 -20.1 -4.2
21:45 1024 30.24 853 25.19 -17.4 0.6 77 -20.6 -5
21:50 1024 30.24 853 25.19 -18 -0.4 76 -21.2 -6.2
21:55 1024 30.24 853 25.19 -18.3 -1 76 -21.6 -6.8
22:00 1024 30.24 853 25.19 -18.3 -0.9 76 -21.5 -6.7
22:05 1024 30.24 853 25.19 -18.2 -0.7 75 -21.6 -6.8
22:10 1024 30.24 853 25.19 -18.4 -1.2 77 -21.5 -6.7
22:15 1024 30.24 853 25.19 -18.4 -1.1 76 -21.6 -6.9
22:20 1024 30.24 853 25.19 -18.2 -0.7 78 -21.1 -5.9
22:25 1024 30.24 853 25.19 -18 -0.4 78 -20.9 -5.6
22:30 1024 30.24 853 25.19 -18.2 -0.7 81 -20.7 -5.3
22:35 1024 30.24 853 25.19 -17.9 -0.3 84 -20 -4
22:40 1024 30.24 853 25.19 -17.4 0.8 83 -19.6 -3.4
22:45 1024 30.24 853 25.19 -17.2 1.1 82 -19.5 -3.2
22:50 1024 30.24 853 25.19 -17.3 0.9 82 -19.7 -3.4
22:55 1024 30.24 853 25.19 -17.4 0.8 82 -19.7 -3.5
23:00 1024 30.24 853 25.19 -17.4 0.7 82 -19.8 -3.6
23:05 1024 30.24 853 25.19 -17.4 0.6 82 -19.8 -3.7
23:10 1024 30.24 853 25.19 -17.5 0.4 81 -20 -4
23:15 1024 30.24 853 25.19 -17.6 0.4 81 -20.1 -4.2
23:20 1024 30.24 853 25.19 -17.6 0.4 81 -20.1 -4.1
23:25 1024 30.24 854 25.22 -17.7 0.2 78 -20.6 -5
23:30 1024 30.24 854 25.22 -17.9 -0.3 78 -20.9 -5.6
23:35 1024 30.24 854 25.22 -18.3 -0.9 76 -21.6 -6.8
23:40 1024 30.24 853 25.19 -18.5 -1.3 73 -22.1 -7.9
23:45 1024 30.24 853 25.19 -19.2 -2.5 74 -22.7 -8.9
23:50 1024 30.24 854 25.22 -19.9 -3.9 78 -22.9 -9.2
23:55 1024 30.24 854 25.22 -19.9 -3.7 78 -22.8 -9
24:00 1024 30.24 854 25.22 -19.9 -3.7 75 -23.2 -9.7